sensor_id;sensor_type;location;lat;lon;timestamp;temperature;humidity
666;DHT22;315;48.738;9.126;2024-03-29T00:00:37;6.70;99.90
666;DHT22;315;48.738;9.126;2024-03-29T00:03:03;6.80;99.90
666;DHT22;315;48.738;9.126;2024-03-29T00:05:29;6.80;99.90
666;DHT22;315;48.738;9.126;2024-03-29T00:07:54;6.90;99.90
666;DHT22;315;48.738;9.126;2024-03-29T00:10:20;6.90;99.90
666;DHT22;315;48.738;9.126;2024-03-29T00:12:45;6.90;99.90
666;DHT22;315;48.738;9.126;2024-03-29T00:15:11;6.90;99.90
666;DHT22;315;48.738;9.126;2024-03-29T00:17:36;6.90;99.90
666;DHT22;315;48.738;9.126;2024-03-29T00:20:02;6.80;99.90
666;DHT22;315;48.738;9.126;2024-03-29T00:22:29;6.80;99.90
666;DHT22;315;48.738;9.126;2024-03-29T00:24:55;6.80;99.90
666;DHT22;315;48.738;9.126;2024-03-29T00:27:20;6.80;99.90
666;DHT22;315;48.738;9.126;2024-03-29T00:29:47;6.80;99.90
666;DHT22;315;48.738;9.126;2024-03-29T00:32:14;6.70;99.90
666;DHT22;315;48.738;9.126;2024-03-29T00:34:39;6.70;99.90
666;DHT22;315;48.738;9.126;2024-03-29T00:37:05;6.70;99.90
666;DHT22;315;48.738;9.126;2024-03-29T00:39:30;6.80;99.90
666;DHT22;315;48.738;9.126;2024-03-29T00:41:56;6.80;99.90
666;DHT22;315;48.738;9.126;2024-03-29T00:44:21;6.80;99.90
666;DHT22;315;48.738;9.126;2024-03-29T00:46:47;6.90;99.90
666;DHT22;315;48.738;9.126;2024-03-29T00:49:13;6.90;99.90
666;DHT22;315;48.738;9.126;2024-03-29T00:51:38;6.90;99.90
666;DHT22;315;48.738;9.126;2024-03-29T00:54:05;6.90;99.90
666;DHT22;315;48.738;9.126;2024-03-29T00:56:30;7.00;99.90
666;DHT22;315;48.738;9.126;2024-03-29T00:58:56;7.00;99.90
666;DHT22;315;48.738;9.126;2024-03-29T01:01:21;7.10;99.90
666;DHT22;315;48.738;9.126;2024-03-29T01:03:47;7.10;99.90
666;DHT22;315;48.738;9.126;2024-03-29T01:06:12;7.10;99.90
666;DHT22;315;48.738;9.126;2024-03-29T01:08:38;7.00;99.90
666;DHT22;315;48.738;9.126;2024-03-29T01:11:03;7.00;99.90
666;DHT22;315;48.738;9.126;2024-03-29T01:13:29;7.00;99.90
666;DHT22;315;48.738;9.126;2024-03-29T01:15:55;7.10;99.90
666;DHT22;315;48.738;9.126;2024-03-29T01:18:20;7.10;99.90
666;DHT22;315;48.738;9.126;2024-03-29T01:20:46;7.20;99.90
666;DHT22;315;48.738;9.126;2024-03-29T01:23:11;7.20;99.90
666;DHT22;315;48.738;9.126;2024-03-29T01:25:37;7.20;99.90
666;DHT22;315;48.738;9.126;2024-03-29T01:28:03;7.20;99.90
666;DHT22;315;48.738;9.126;2024-03-29T01:30:29;7.20;99.90
666;DHT22;315;48.738;9.126;2024-03-29T01:32:55;7.20;99.90
666;DHT22;315;48.738;9.126;2024-03-29T01:35:20;7.20;99.90
666;DHT22;315;48.738;9.126;2024-03-29T01:37:46;7.10;99.90
666;DHT22;315;48.738;9.126;2024-03-29T01:40:12;7.10;99.90
666;DHT22;315;48.738;9.126;2024-03-29T01:42:37;7.10;99.90
666;DHT22;315;48.738;9.126;2024-03-29T01:45:03;7.10;99.90
666;DHT22;315;48.738;9.126;2024-03-29T01:47:29;7.10;99.90
666;DHT22;315;48.738;9.126;2024-03-29T01:49:54;7.10;99.90
666;DHT22;315;48.738;9.126;2024-03-29T01:52:20;7.10;99.90
666;DHT22;315;48.738;9.126;2024-03-29T01:54:47;7.10;99.90
666;DHT22;315;48.738;9.126;2024-03-29T01:57:13;7.10;99.90
666;DHT22;315;48.738;9.126;2024-03-29T01:59:41;7.10;99.90
666;DHT22;315;48.738;9.126;2024-03-29T02:02:08;7.10;99.90
666;DHT22;315;48.738;9.126;2024-03-29T02:04:35;7.10;99.90
666;DHT22;315;48.738;9.126;2024-03-29T02:07:01;7.10;99.90
666;DHT22;315;48.738;9.126;2024-03-29T02:09:26;7.10;99.90
666;DHT22;315;48.738;9.126;2024-03-29T02:11:52;7.20;99.90
666;DHT22;315;48.738;9.126;2024-03-29T02:14:17;7.20;99.90
666;DHT22;315;48.738;9.126;2024-03-29T02:16:43;7.30;99.90
666;DHT22;315;48.738;9.126;2024-03-29T02:19:09;7.40;99.90
666;DHT22;315;48.738;9.126;2024-03-29T02:21:37;7.50;99.90
666;DHT22;315;48.738;9.126;2024-03-29T02:24:08;7.50;99.90
666;DHT22;315;48.738;9.126;2024-03-29T02:26:34;7.60;99.90
666;DHT22;315;48.738;9.126;2024-03-29T02:29:02;7.60;99.90
666;DHT22;315;48.738;9.126;2024-03-29T02:31:28;7.60;99.90
666;DHT22;315;48.738;9.126;2024-03-29T02:33:54;7.60;99.90
666;DHT22;315;48.738;9.126;2024-03-29T02:36:19;7.60;99.90
666;DHT22;315;48.738;9.126;2024-03-29T02:38:45;7.60;99.90
666;DHT22;315;48.738;9.126;2024-03-29T02:41:11;7.60;99.90
666;DHT22;315;48.738;9.126;2024-03-29T02:43:36;7.60;99.90
666;DHT22;315;48.738;9.126;2024-03-29T02:46:02;7.60;99.90
666;DHT22;315;48.738;9.126;2024-03-29T02:48:27;7.60;99.90
666;DHT22;315;48.738;9.126;2024-03-29T02:50:53;7.60;99.90
666;DHT22;315;48.738;9.126;2024-03-29T02:53:18;7.50;99.90
666;DHT22;315;48.738;9.126;2024-03-29T02:55:44;7.50;99.90
666;DHT22;315;48.738;9.126;2024-03-29T02:58:09;7.50;99.90
666;DHT22;315;48.738;9.126;2024-03-29T03:00:34;7.60;99.90
666;DHT22;315;48.738;9.126;2024-03-29T03:03:00;7.60;99.90
666;DHT22;315;48.738;9.126;2024-03-29T03:05:25;7.60;99.90
666;DHT22;315;48.738;9.126;2024-03-29T03:07:51;7.60;99.90
666;DHT22;315;48.738;9.126;2024-03-29T03:10:35;7.60;99.90
666;DHT22;315;48.738;9.126;2024-03-29T03:13:19;7.50;99.90
666;DHT22;315;48.738;9.126;2024-03-29T03:15:44;7.50;99.90
666;DHT22;315;48.738;9.126;2024-03-29T03:18:10;7.50;99.90
666;DHT22;315;48.738;9.126;2024-03-29T03:20:35;7.50;99.90
666;DHT22;315;48.738;9.126;2024-03-29T03:23:03;7.50;99.90
666;DHT22;315;48.738;9.126;2024-03-29T03:25:29;7.50;99.90
666;DHT22;315;48.738;9.126;2024-03-29T03:27:55;7.50;99.90
666;DHT22;315;48.738;9.126;2024-03-29T03:30:20;7.50;99.90
666;DHT22;315;48.738;9.126;2024-03-29T03:32:46;7.50;99.90
666;DHT22;315;48.738;9.126;2024-03-29T03:35:12;7.50;99.90
666;DHT22;315;48.738;9.126;2024-03-29T03:37:37;7.60;99.90
666;DHT22;315;48.738;9.126;2024-03-29T03:40:03;7.70;99.90
666;DHT22;315;48.738;9.126;2024-03-29T03:42:29;7.70;99.90
666;DHT22;315;48.738;9.126;2024-03-29T03:44:56;7.70;99.90
666;DHT22;315;48.738;9.126;2024-03-29T03:47:21;7.70;99.90
666;DHT22;315;48.738;9.126;2024-03-29T03:49:47;7.60;99.90
666;DHT22;315;48.738;9.126;2024-03-29T03:52:12;7.70;99.90
666;DHT22;315;48.738;9.126;2024-03-29T03:54:38;7.80;99.90
666;DHT22;315;48.738;9.126;2024-03-29T03:57:04;7.90;99.90
666;DHT22;315;48.738;9.126;2024-03-29T03:59:30;8.00;99.90
666;DHT22;315;48.738;9.126;2024-03-29T04:01:56;8.00;99.90
666;DHT22;315;48.738;9.126;2024-03-29T04:04:22;8.20;99.90
666;DHT22;315;48.738;9.126;2024-03-29T04:06:47;8.20;99.90
666;DHT22;315;48.738;9.126;2024-03-29T04:09:16;8.30;99.90
666;DHT22;315;48.738;9.126;2024-03-29T04:11:42;8.30;99.90
666;DHT22;315;48.738;9.126;2024-03-29T04:14:08;8.30;99.90
666;DHT22;315;48.738;9.126;2024-03-29T04:16:33;8.30;99.90
666;DHT22;315;48.738;9.126;2024-03-29T04:18:59;8.40;99.90
666;DHT22;315;48.738;9.126;2024-03-29T04:21:25;8.30;99.90
666;DHT22;315;48.738;9.126;2024-03-29T04:23:50;8.30;99.90
666;DHT22;315;48.738;9.126;2024-03-29T04:26:16;8.30;99.90
666;DHT22;315;48.738;9.126;2024-03-29T04:28:41;8.30;99.90
666;DHT22;315;48.738;9.126;2024-03-29T04:31:07;8.30;99.90
666;DHT22;315;48.738;9.126;2024-03-29T04:33:32;8.40;99.90
666;DHT22;315;48.738;9.126;2024-03-29T04:36:03;8.50;99.90
666;DHT22;315;48.738;9.126;2024-03-29T04:38:30;8.50;99.90
666;DHT22;315;48.738;9.126;2024-03-29T04:40:57;8.60;99.90
666;DHT22;315;48.738;9.126;2024-03-29T04:43:24;8.60;99.90
666;DHT22;315;48.738;9.126;2024-03-29T04:45:49;8.40;99.90
666;DHT22;315;48.738;9.126;2024-03-29T04:48:15;8.40;99.90
666;DHT22;315;48.738;9.126;2024-03-29T04:50:41;8.50;99.90
666;DHT22;315;48.738;9.126;2024-03-29T04:53:09;8.50;99.90
666;DHT22;315;48.738;9.126;2024-03-29T04:55:35;8.50;99.90
666;DHT22;315;48.738;9.126;2024-03-29T04:58:01;8.50;99.90
666;DHT22;315;48.738;9.126;2024-03-29T05:00:26;8.50;99.90
666;DHT22;315;48.738;9.126;2024-03-29T05:02:52;8.40;99.90
666;DHT22;315;48.738;9.126;2024-03-29T05:05:17;8.40;99.90
666;DHT22;315;48.738;9.126;2024-03-29T05:07:44;8.40;99.90
666;DHT22;315;48.738;9.126;2024-03-29T05:10:09;8.40;99.90
666;DHT22;315;48.738;9.126;2024-03-29T05:12:36;8.40;99.90
666;DHT22;315;48.738;9.126;2024-03-29T05:15:02;8.40;99.90
666;DHT22;315;48.738;9.126;2024-03-29T05:17:27;8.40;99.90
666;DHT22;315;48.738;9.126;2024-03-29T05:19:53;8.50;99.90
666;DHT22;315;48.738;9.126;2024-03-29T05:22:19;8.50;99.90
666;DHT22;315;48.738;9.126;2024-03-29T05:24:44;8.50;99.90
666;DHT22;315;48.738;9.126;2024-03-29T05:27:12;8.50;99.90
666;DHT22;315;48.738;9.126;2024-03-29T05:29:37;8.50;99.90
666;DHT22;315;48.738;9.126;2024-03-29T05:32:04;8.50;99.90
666;DHT22;315;48.738;9.126;2024-03-29T05:34:29;8.60;99.90
666;DHT22;315;48.738;9.126;2024-03-29T05:36:55;8.60;99.90
666;DHT22;315;48.738;9.126;2024-03-29T05:39:20;8.60;99.90
666;DHT22;315;48.738;9.126;2024-03-29T05:41:46;8.60;99.90
666;DHT22;315;48.738;9.126;2024-03-29T05:44:12;8.60;99.90
666;DHT22;315;48.738;9.126;2024-03-29T05:46:38;8.70;99.90
666;DHT22;315;48.738;9.126;2024-03-29T05:49:04;8.70;99.90
666;DHT22;315;48.738;9.126;2024-03-29T05:51:30;8.80;99.90
666;DHT22;315;48.738;9.126;2024-03-29T05:53:55;8.90;99.90
666;DHT22;315;48.738;9.126;2024-03-29T05:56:21;8.90;99.90
666;DHT22;315;48.738;9.126;2024-03-29T05:58:47;9.00;99.90
666;DHT22;315;48.738;9.126;2024-03-29T06:01:13;9.00;99.90
666;DHT22;315;48.738;9.126;2024-03-29T06:03:38;9.00;99.90
666;DHT22;315;48.738;9.126;2024-03-29T06:06:04;9.00;99.90
666;DHT22;315;48.738;9.126;2024-03-29T06:08:30;9.00;99.90
666;DHT22;315;48.738;9.126;2024-03-29T06:10:55;9.10;99.90
666;DHT22;315;48.738;9.126;2024-03-29T06:13:22;9.10;99.90
666;DHT22;315;48.738;9.126;2024-03-29T06:16:06;9.20;99.90
666;DHT22;315;48.738;9.126;2024-03-29T06:18:50;9.30;99.90
666;DHT22;315;48.738;9.126;2024-03-29T06:21:16;9.40;99.90
666;DHT22;315;48.738;9.126;2024-03-29T06:23:41;9.40;99.90
666;DHT22;315;48.738;9.126;2024-03-29T06:26:07;9.40;99.90
666;DHT22;315;48.738;9.126;2024-03-29T06:28:32;9.40;99.90
666;DHT22;315;48.738;9.126;2024-03-29T06:30:58;9.50;99.90
666;DHT22;315;48.738;9.126;2024-03-29T06:33:25;9.50;99.90
666;DHT22;315;48.738;9.126;2024-03-29T06:35:54;9.50;99.90
666;DHT22;315;48.738;9.126;2024-03-29T06:38:20;9.50;99.90
666;DHT22;315;48.738;9.126;2024-03-29T06:40:45;9.50;99.90
666;DHT22;315;48.738;9.126;2024-03-29T06:43:11;9.50;99.90
666;DHT22;315;48.738;9.126;2024-03-29T06:45:40;9.50;99.90
666;DHT22;315;48.738;9.126;2024-03-29T06:48:06;9.60;99.90
666;DHT22;315;48.738;9.126;2024-03-29T06:50:31;9.70;99.90
666;DHT22;315;48.738;9.126;2024-03-29T06:52:57;9.80;99.90
666;DHT22;315;48.738;9.126;2024-03-29T06:55:22;9.80;99.90
666;DHT22;315;48.738;9.126;2024-03-29T06:57:48;9.90;99.90
666;DHT22;315;48.738;9.126;2024-03-29T07:00:13;10.10;99.90
666;DHT22;315;48.738;9.126;2024-03-29T07:02:39;10.30;99.90
666;DHT22;315;48.738;9.126;2024-03-29T07:05:04;10.40;99.90
666;DHT22;315;48.738;9.126;2024-03-29T07:07:33;10.50;99.90
666;DHT22;315;48.738;9.126;2024-03-29T07:09:58;10.60;99.90
666;DHT22;315;48.738;9.126;2024-03-29T07:12:24;10.70;99.90
666;DHT22;315;48.738;9.126;2024-03-29T07:14:49;10.70;99.90
666;DHT22;315;48.738;9.126;2024-03-29T07:17:15;10.70;99.90
666;DHT22;315;48.738;9.126;2024-03-29T07:19:40;10.70;99.90
666;DHT22;315;48.738;9.126;2024-03-29T07:22:06;10.60;99.90
666;DHT22;315;48.738;9.126;2024-03-29T07:24:31;10.50;99.90
666;DHT22;315;48.738;9.126;2024-03-29T07:26:57;10.30;99.90
666;DHT22;315;48.738;9.126;2024-03-29T07:29:22;10.10;99.90
666;DHT22;315;48.738;9.126;2024-03-29T07:31:48;10.00;99.90
666;DHT22;315;48.738;9.126;2024-03-29T07:34:13;9.90;99.90
666;DHT22;315;48.738;9.126;2024-03-29T07:36:39;9.90;99.90
666;DHT22;315;48.738;9.126;2024-03-29T07:39:05;9.80;99.90
666;DHT22;315;48.738;9.126;2024-03-29T07:41:32;9.60;99.90
666;DHT22;315;48.738;9.126;2024-03-29T07:43:58;9.40;99.90
666;DHT22;315;48.738;9.126;2024-03-29T07:46:31;9.20;99.90
666;DHT22;315;48.738;9.126;2024-03-29T07:48:57;9.00;99.90
666;DHT22;315;48.738;9.126;2024-03-29T07:51:22;8.80;99.90
666;DHT22;315;48.738;9.126;2024-03-29T07:53:48;8.60;99.90
666;DHT22;315;48.738;9.126;2024-03-29T07:56:14;8.30;99.90
666;DHT22;315;48.738;9.126;2024-03-29T07:58:39;8.10;99.90
666;DHT22;315;48.738;9.126;2024-03-29T08:01:05;8.00;99.90
666;DHT22;315;48.738;9.126;2024-03-29T08:03:31;7.90;99.90
666;DHT22;315;48.738;9.126;2024-03-29T08:06:00;7.90;99.90
666;DHT22;315;48.738;9.126;2024-03-29T08:08:27;7.90;99.90
666;DHT22;315;48.738;9.126;2024-03-29T08:10:53;7.90;99.90
666;DHT22;315;48.738;9.126;2024-03-29T08:13:19;7.80;99.90
666;DHT22;315;48.738;9.126;2024-03-29T08:15:47;7.90;99.90
666;DHT22;315;48.738;9.126;2024-03-29T08:18:13;7.90;99.90
666;DHT22;315;48.738;9.126;2024-03-29T08:20:38;7.90;99.90
666;DHT22;315;48.738;9.126;2024-03-29T08:23:04;8.00;99.90
666;DHT22;315;48.738;9.126;2024-03-29T08:25:29;8.00;99.90
666;DHT22;315;48.738;9.126;2024-03-29T08:27:55;8.00;99.90
666;DHT22;315;48.738;9.126;2024-03-29T08:30:27;8.00;99.90
666;DHT22;315;48.738;9.126;2024-03-29T08:33:00;8.10;99.90
666;DHT22;315;48.738;9.126;2024-03-29T08:35:28;8.10;99.90
666;DHT22;315;48.738;9.126;2024-03-29T08:37:53;8.10;99.90
666;DHT22;315;48.738;9.126;2024-03-29T08:40:19;8.10;99.90
666;DHT22;315;48.738;9.126;2024-03-29T08:42:45;8.20;99.90
666;DHT22;315;48.738;9.126;2024-03-29T08:45:10;8.30;99.90
666;DHT22;315;48.738;9.126;2024-03-29T08:47:37;8.50;99.90
666;DHT22;315;48.738;9.126;2024-03-29T08:50:02;8.70;99.90
666;DHT22;315;48.738;9.126;2024-03-29T08:52:30;8.90;99.90
666;DHT22;315;48.738;9.126;2024-03-29T08:54:55;8.90;99.90
666;DHT22;315;48.738;9.126;2024-03-29T08:57:21;9.00;99.90
666;DHT22;315;48.738;9.126;2024-03-29T08:59:46;9.00;99.90
666;DHT22;315;48.738;9.126;2024-03-29T09:02:12;9.10;99.90
666;DHT22;315;48.738;9.126;2024-03-29T09:04:37;9.20;99.90
666;DHT22;315;48.738;9.126;2024-03-29T09:07:03;9.30;99.90
666;DHT22;315;48.738;9.126;2024-03-29T09:09:29;9.40;99.90
666;DHT22;315;48.738;9.126;2024-03-29T09:11:55;9.50;99.90
666;DHT22;315;48.738;9.126;2024-03-29T09:14:21;9.60;99.90
666;DHT22;315;48.738;9.126;2024-03-29T09:16:46;9.80;99.90
666;DHT22;315;48.738;9.126;2024-03-29T09:19:13;9.90;99.90
666;DHT22;315;48.738;9.126;2024-03-29T09:21:39;10.00;99.90
666;DHT22;315;48.738;9.126;2024-03-29T09:24:05;10.00;99.90
666;DHT22;315;48.738;9.126;2024-03-29T09:26:31;10.00;99.90
666;DHT22;315;48.738;9.126;2024-03-29T09:28:57;10.00;99.90
666;DHT22;315;48.738;9.126;2024-03-29T09:31:22;10.10;99.90
666;DHT22;315;48.738;9.126;2024-03-29T09:33:48;10.10;99.90
666;DHT22;315;48.738;9.126;2024-03-29T09:36:20;10.10;99.90
666;DHT22;315;48.738;9.126;2024-03-29T09:38:46;10.10;99.90
666;DHT22;315;48.738;9.126;2024-03-29T09:41:15;10.10;99.90
666;DHT22;315;48.738;9.126;2024-03-29T09:43:46;10.20;99.90
666;DHT22;315;48.738;9.126;2024-03-29T09:46:13;10.50;99.90
666;DHT22;315;48.738;9.126;2024-03-29T09:48:40;10.60;99.90
666;DHT22;315;48.738;9.126;2024-03-29T09:51:07;10.90;99.90
666;DHT22;315;48.738;9.126;2024-03-29T09:53:34;11.10;99.90
666;DHT22;315;48.738;9.126;2024-03-29T09:56:06;11.20;99.90
666;DHT22;315;48.738;9.126;2024-03-29T09:58:36;11.30;99.90
666;DHT22;315;48.738;9.126;2024-03-29T10:01:06;11.40;99.90
666;DHT22;315;48.738;9.126;2024-03-29T10:03:36;11.50;99.90
666;DHT22;315;48.738;9.126;2024-03-29T10:06:04;11.30;99.90
666;DHT22;315;48.738;9.126;2024-03-29T10:08:30;11.20;99.90
666;DHT22;315;48.738;9.126;2024-03-29T10:10:56;11.10;99.90
666;DHT22;315;48.738;9.126;2024-03-29T10:13:22;11.10;99.90
666;DHT22;315;48.738;9.126;2024-03-29T10:15:52;11.30;99.90
666;DHT22;315;48.738;9.126;2024-03-29T10:18:24;11.50;99.90
666;DHT22;315;48.738;9.126;2024-03-29T10:21:03;12.30;99.90
666;DHT22;315;48.738;9.126;2024-03-29T10:23:29;13.80;99.90
666;DHT22;315;48.738;9.126;2024-03-29T10:25:56;15.20;99.90
666;DHT22;315;48.738;9.126;2024-03-29T10:28:22;15.50;99.90
666;DHT22;315;48.738;9.126;2024-03-29T10:30:48;15.60;99.90
666;DHT22;315;48.738;9.126;2024-03-29T10:33:15;15.20;99.90
666;DHT22;315;48.738;9.126;2024-03-29T10:35:44;14.90;99.90
666;DHT22;315;48.738;9.126;2024-03-29T10:38:11;15.00;99.90
666;DHT22;315;48.738;9.126;2024-03-29T10:40:40;15.30;99.90
666;DHT22;315;48.738;9.126;2024-03-29T10:43:10;15.60;99.90
666;DHT22;315;48.738;9.126;2024-03-29T10:45:39;15.50;99.90
666;DHT22;315;48.738;9.126;2024-03-29T10:48:05;15.40;99.90
666;DHT22;315;48.738;9.126;2024-03-29T10:50:37;15.60;99.90
666;DHT22;315;48.738;9.126;2024-03-29T10:53:05;15.20;99.90
666;DHT22;315;48.738;9.126;2024-03-29T10:55:33;15.00;99.90
666;DHT22;315;48.738;9.126;2024-03-29T10:58:00;15.00;99.90
666;DHT22;315;48.738;9.126;2024-03-29T11:00:28;15.50;99.90
666;DHT22;315;48.738;9.126;2024-03-29T11:05:41;15.20;99.90
666;DHT22;315;48.738;9.126;2024-03-29T11:08:10;15.10;99.90
666;DHT22;315;48.738;9.126;2024-03-29T11:10:44;14.60;99.90
666;DHT22;315;48.738;9.126;2024-03-29T11:13:33;14.40;99.90
666;DHT22;315;48.738;9.126;2024-03-29T11:16:00;14.50;99.90
666;DHT22;315;48.738;9.126;2024-03-29T11:18:27;15.10;99.90
666;DHT22;315;48.738;9.126;2024-03-29T11:20:54;15.50;99.90
666;DHT22;315;48.738;9.126;2024-03-29T11:23:22;15.60;99.90
666;DHT22;315;48.738;9.126;2024-03-29T11:25:52;15.50;99.90
666;DHT22;315;48.738;9.126;2024-03-29T11:28:25;16.00;99.90
666;DHT22;315;48.738;9.126;2024-03-29T11:30:52;16.30;99.90
666;DHT22;315;48.738;9.126;2024-03-29T11:33:45;16.70;99.90
666;DHT22;315;48.738;9.126;2024-03-29T11:36:12;16.80;99.90
666;DHT22;315;48.738;9.126;2024-03-29T11:38:39;16.80;99.90
666;DHT22;315;48.738;9.126;2024-03-29T11:41:16;16.50;99.90
666;DHT22;315;48.738;9.126;2024-03-29T11:43:42;16.00;99.90
666;DHT22;315;48.738;9.126;2024-03-29T11:46:13;15.60;99.90
666;DHT22;315;48.738;9.126;2024-03-29T11:48:39;15.80;99.90
666;DHT22;315;48.738;9.126;2024-03-29T11:51:07;15.80;99.90
666;DHT22;315;48.738;9.126;2024-03-29T11:53:34;15.70;99.90
666;DHT22;315;48.738;9.126;2024-03-29T11:56:01;15.50;99.90
666;DHT22;315;48.738;9.126;2024-03-29T11:58:27;15.40;99.90
666;DHT22;315;48.738;9.126;2024-03-29T12:00:54;15.40;99.90
666;DHT22;315;48.738;9.126;2024-03-29T12:03:21;15.00;99.90
666;DHT22;315;48.738;9.126;2024-03-29T12:05:48;15.00;99.90
666;DHT22;315;48.738;9.126;2024-03-29T12:08:15;14.70;99.90
666;DHT22;315;48.738;9.126;2024-03-29T12:10:40;14.50;99.90
666;DHT22;315;48.738;9.126;2024-03-29T12:13:06;14.70;99.90
666;DHT22;315;48.738;9.126;2024-03-29T12:15:33;15.00;99.90
666;DHT22;315;48.738;9.126;2024-03-29T12:18:03;15.00;99.90
666;DHT22;315;48.738;9.126;2024-03-29T12:20:30;15.50;99.90
666;DHT22;315;48.738;9.126;2024-03-29T12:22:58;15.80;99.90
666;DHT22;315;48.738;9.126;2024-03-29T12:25:25;16.10;99.90
666;DHT22;315;48.738;9.126;2024-03-29T12:27:52;16.40;99.90
666;DHT22;315;48.738;9.126;2024-03-29T12:30:18;16.60;99.90
666;DHT22;315;48.738;9.126;2024-03-29T12:32:44;16.60;99.90
666;DHT22;315;48.738;9.126;2024-03-29T12:35:19;16.90;99.90
666;DHT22;315;48.738;9.126;2024-03-29T12:37:50;17.20;99.90
666;DHT22;315;48.738;9.126;2024-03-29T12:40:17;18.40;99.90
666;DHT22;315;48.738;9.126;2024-03-29T12:42:47;19.10;99.90
666;DHT22;315;48.738;9.126;2024-03-29T12:45:13;19.40;99.90
666;DHT22;315;48.738;9.126;2024-03-29T12:47:38;20.10;99.90
666;DHT22;315;48.738;9.126;2024-03-29T12:50:04;21.90;98.90
666;DHT22;315;48.738;9.126;2024-03-29T12:52:40;22.60;91.70
666;DHT22;315;48.738;9.126;2024-03-29T12:55:06;22.30;91.70
666;DHT22;315;48.738;9.126;2024-03-29T12:57:42;21.70;91.20
666;DHT22;315;48.738;9.126;2024-03-29T13:00:10;20.40;95.10
666;DHT22;315;48.738;9.126;2024-03-29T13:02:36;19.80;98.50
666;DHT22;315;48.738;9.126;2024-03-29T13:05:05;19.60;99.90
666;DHT22;315;48.738;9.126;2024-03-29T13:07:31;19.60;99.20
666;DHT22;315;48.738;9.126;2024-03-29T13:09:59;19.40;99.70
666;DHT22;315;48.738;9.126;2024-03-29T13:12:28;21.20;97.70
666;DHT22;315;48.738;9.126;2024-03-29T13:14:54;24.10;88.40
666;DHT22;315;48.738;9.126;2024-03-29T13:17:19;26.60;65.80
666;DHT22;315;48.738;9.126;2024-03-29T13:19:45;28.70;52.70
666;DHT22;315;48.738;9.126;2024-03-29T13:22:10;30.10;45.10
666;DHT22;315;48.738;9.126;2024-03-29T13:24:36;30.20;39.40
666;DHT22;315;48.738;9.126;2024-03-29T13:27:02;30.20;36.40
666;DHT22;315;48.738;9.126;2024-03-29T13:29:29;30.80;34.70
666;DHT22;315;48.738;9.126;2024-03-29T13:31:55;30.90;33.20
666;DHT22;315;48.738;9.126;2024-03-29T13:34:22;30.90;32.00
666;DHT22;315;48.738;9.126;2024-03-29T13:36:48;30.90;30.10
666;DHT22;315;48.738;9.126;2024-03-29T13:39:13;30.90;30.10
666;DHT22;315;48.738;9.126;2024-03-29T13:41:40;30.20;30.90
666;DHT22;315;48.738;9.126;2024-03-29T13:44:06;29.80;30.60
666;DHT22;315;48.738;9.126;2024-03-29T13:46:33;29.50;31.50
666;DHT22;315;48.738;9.126;2024-03-29T13:48:58;29.30;31.90
666;DHT22;315;48.738;9.126;2024-03-29T13:51:24;28.80;32.80
666;DHT22;315;48.738;9.126;2024-03-29T13:53:49;28.00;33.20
666;DHT22;315;48.738;9.126;2024-03-29T13:56:15;27.10;34.70
666;DHT22;315;48.738;9.126;2024-03-29T13:58:41;26.40;36.90
666;DHT22;315;48.738;9.126;2024-03-29T14:01:06;26.00;37.00
666;DHT22;315;48.738;9.126;2024-03-29T14:03:32;25.10;38.10
666;DHT22;315;48.738;9.126;2024-03-29T14:05:57;23.50;40.10
666;DHT22;315;48.738;9.126;2024-03-29T14:08:23;22.30;43.20
666;DHT22;315;48.738;9.126;2024-03-29T14:10:48;21.40;46.90
666;DHT22;315;48.738;9.126;2024-03-29T14:13:17;21.10;50.30
666;DHT22;315;48.738;9.126;2024-03-29T14:15:42;20.70;53.30
666;DHT22;315;48.738;9.126;2024-03-29T14:18:08;20.50;57.10
666;DHT22;315;48.738;9.126;2024-03-29T14:20:33;20.20;66.80
666;DHT22;315;48.738;9.126;2024-03-29T14:22:59;19.90;73.30
666;DHT22;315;48.738;9.126;2024-03-29T14:25:29;19.60;78.10
666;DHT22;315;48.738;9.126;2024-03-29T14:27:54;19.10;78.70
666;DHT22;315;48.738;9.126;2024-03-29T14:30:23;18.80;90.40
666;DHT22;315;48.738;9.126;2024-03-29T14:32:50;18.70;91.90
666;DHT22;315;48.738;9.126;2024-03-29T14:35:16;18.50;94.60
666;DHT22;315;48.738;9.126;2024-03-29T14:37:43;18.40;97.80
666;DHT22;315;48.738;9.126;2024-03-29T14:40:10;18.20;97.70
666;DHT22;315;48.738;9.126;2024-03-29T14:42:38;18.10;98.40
666;DHT22;315;48.738;9.126;2024-03-29T14:45:04;18.10;98.20
666;DHT22;315;48.738;9.126;2024-03-29T14:47:30;18.00;98.90
666;DHT22;315;48.738;9.126;2024-03-29T14:49:55;17.80;98.40
666;DHT22;315;48.738;9.126;2024-03-29T14:52:21;17.90;99.60
666;DHT22;315;48.738;9.126;2024-03-29T14:54:47;17.90;99.90
666;DHT22;315;48.738;9.126;2024-03-29T14:57:12;17.90;99.90
666;DHT22;315;48.738;9.126;2024-03-29T14:59:38;17.60;99.90
666;DHT22;315;48.738;9.126;2024-03-29T15:02:04;17.60;99.90
666;DHT22;315;48.738;9.126;2024-03-29T15:04:29;17.30;99.90
666;DHT22;315;48.738;9.126;2024-03-29T15:06:55;17.40;99.90
666;DHT22;315;48.738;9.126;2024-03-29T15:09:20;17.50;99.90
666;DHT22;315;48.738;9.126;2024-03-29T15:11:46;17.60;99.90
666;DHT22;315;48.738;9.126;2024-03-29T15:14:12;17.60;99.90
666;DHT22;315;48.738;9.126;2024-03-29T15:16:37;17.70;99.90
666;DHT22;315;48.738;9.126;2024-03-29T15:19:03;17.70;99.90
666;DHT22;315;48.738;9.126;2024-03-29T15:21:29;17.70;99.90
666;DHT22;315;48.738;9.126;2024-03-29T15:23:55;17.70;99.90
666;DHT22;315;48.738;9.126;2024-03-29T15:26:22;17.60;99.90
666;DHT22;315;48.738;9.126;2024-03-29T15:28:48;17.60;99.90
666;DHT22;315;48.738;9.126;2024-03-29T15:31:36;17.60;99.90
666;DHT22;315;48.738;9.126;2024-03-29T15:34:02;17.60;99.90
666;DHT22;315;48.738;9.126;2024-03-29T15:36:32;17.50;99.90
666;DHT22;315;48.738;9.126;2024-03-29T15:38:58;17.60;99.90
666;DHT22;315;48.738;9.126;2024-03-29T15:41:34;17.50;99.90
666;DHT22;315;48.738;9.126;2024-03-29T15:44:01;17.50;99.90
666;DHT22;315;48.738;9.126;2024-03-29T15:46:27;17.50;99.90
666;DHT22;315;48.738;9.126;2024-03-29T15:48:53;17.40;99.90
666;DHT22;315;48.738;9.126;2024-03-29T15:51:18;17.20;99.90
666;DHT22;315;48.738;9.126;2024-03-29T15:53:44;17.10;99.90
666;DHT22;315;48.738;9.126;2024-03-29T15:56:09;17.10;99.90
666;DHT22;315;48.738;9.126;2024-03-29T15:58:35;17.10;99.90
666;DHT22;315;48.738;9.126;2024-03-29T16:01:02;17.10;99.90
666;DHT22;315;48.738;9.126;2024-03-29T16:03:29;17.20;99.90
666;DHT22;315;48.738;9.126;2024-03-29T16:05:56;17.10;99.90
666;DHT22;315;48.738;9.126;2024-03-29T16:08:22;17.00;99.90
666;DHT22;315;48.738;9.126;2024-03-29T16:11:05;16.90;99.90
666;DHT22;315;48.738;9.126;2024-03-29T16:13:32;16.80;99.90
666;DHT22;315;48.738;9.126;2024-03-29T16:16:00;16.80;99.90
666;DHT22;315;48.738;9.126;2024-03-29T16:18:27;16.70;99.90
666;DHT22;315;48.738;9.126;2024-03-29T16:20:54;16.60;99.90
666;DHT22;315;48.738;9.126;2024-03-29T16:23:20;16.50;99.90
666;DHT22;315;48.738;9.126;2024-03-29T16:25:46;16.50;99.90
666;DHT22;315;48.738;9.126;2024-03-29T16:28:13;16.30;99.90
666;DHT22;315;48.738;9.126;2024-03-29T16:30:44;16.30;99.90
666;DHT22;315;48.738;9.126;2024-03-29T16:33:10;16.30;99.90
666;DHT22;315;48.738;9.126;2024-03-29T16:35:36;16.20;99.90
666;DHT22;315;48.738;9.126;2024-03-29T16:38:02;16.10;99.90
666;DHT22;315;48.738;9.126;2024-03-29T16:40:28;16.00;99.90
666;DHT22;315;48.738;9.126;2024-03-29T16:42:54;15.90;99.90